Buffalo, WY

12:16 AM MDT on September 02, 2014 (GMT -0600)
Esponda Ranch | Change Station
CLOSE
Current Station
Personal Weather Station
Location: Buffalo, WY
Elevation: 4665 ft
Nearby Weather Stations

Elev 4665 ft 44.32 °N, 106.67 °W | Updated 11 minutes ago

Clear
Clear
46.5 °F
Feels Like 46 °F
N
3.0
Wind Variable Wind from SW
Gusts 3.0 mph

Today
High -- | Low -- °F
--% Chance of Precip.
Yesterday
High -- | Low -- °F
Precip. -- in
6:30 AM 7:41 PM
Waxing Crescent, 48% visible
Pressure 29.96 in
Visibility 10.0 miles
Clouds Clear
Windchill 46 °F
Dew Point 44 °F
Humidity 91%
Rainfall -9999.00 in
Snow Depth Not available.
UV 0 out of 12
Pollen 7.30 out of 12
Air Quality Not available.
Flu Activity Not available.
METAR KBYG 020553Z AUTO 18006KT 10SM CLR 10/06 A3005 RMK AO2 SLP146 T01000056 10172 20094 58001 $

More Conditions Fewer Conditions

Pressure 29.96 in
Visibility 10.0 miles
Clouds Clear
Windchill 46 °F
Dew Point 44 °F
Humidity 91%
Rainfall -9999.00 in
Snow Depth Not available.
UV 0 out of 12
Pollen 7.30 out of 12
Air Quality Not available.
Flu Activity Not available.
METAR KBYG 020553Z AUTO 18006KT 10SM CLR 10/06 A3005 RMK AO2 SLP146 T01000056 10172 20094 58001 $

More Conditions Fewer Conditions

10-Day Weather Forecast

Almanac

Astronomy

Sep. 02, 2014 Rise Set
Actual Time 6:30 AM MDT 7:41 PM MDT
Civil Twilight 6:01 AM MDT 8:10 PM MDT
Nautical Twilight 5:25 AM MDT 8:46 PM MDT
Astronomical Twilight 4:47 AM MDT 9:24 PM MDT
Moon 2:34 PM MDT No Moon Set
Length of Visible Light 14h 09m
Length of Day
13h 10m
Tomorrow will be 2m 59s shorter.
Waxing Crescent, 48% of the Moon is Illuminated
Today
Waxing Crescent
Sep 2
First Quarter
Sep 8
Full
Sep 15
Last Quarter
Sep 24
New

Today's Extremes

State Highs State Lows

Community

WunderPhotos

Upload Photos

1,749,581 photos uploaded!

WunderBlogs® & News

Nearby

Snow Depth

Station Depth Elevation
Casper Mountain 0 in 7850 ft
Reno Hill 0 in 8500 ft
Sylvan Road 0 in 7120 ft
Sylvan Lake 0 in 8420 ft
Togwotee Pass 0 in 7980 ft

Earthquake Activity

City Distance Mag. Time & Date
No recent earthquake activity has been reported nearby.
Minimum magnitude displayed is 2.5.

Coastal Water Temperatures

Place Temperature
No Stations Reporting

Nearby Weather Stations